sensor_id;sensor_type;location;lat;lon;timestamp;temperature;humidity
64209;DHT22;50527;52.414;13.226;2022-12-18T00:01:26;-4.00;94.50
64209;DHT22;50527;52.414;13.226;2022-12-18T00:03:53;-4.10;94.90
64209;DHT22;50527;52.414;13.226;2022-12-18T00:06:20;-4.10;95.50
64209;DHT22;50527;52.414;13.226;2022-12-18T00:08:46;-4.10;95.40
64209;DHT22;50527;52.414;13.226;2022-12-18T00:11:14;-4.10;95.50
64209;DHT22;50527;52.414;13.226;2022-12-18T00:13:40;-4.00;95.60
64209;DHT22;50527;52.414;13.226;2022-12-18T00:16:08;-3.90;95.50
64209;DHT22;50527;52.414;13.226;2022-12-18T00:18:34;-3.90;95.30
64209;DHT22;50527;52.414;13.226;2022-12-18T00:21:01;-3.90;95.10
64209;DHT22;50527;52.414;13.226;2022-12-18T00:23:28;-3.90;94.90
64209;DHT22;50527;52.414;13.226;2022-12-18T00:25:54;-3.90;94.80
64209;DHT22;50527;52.414;13.226;2022-12-18T00:28:20;-3.90;95.30
64209;DHT22;50527;52.414;13.226;2022-12-18T00:30:45;-3.90;95.10
64209;DHT22;50527;52.414;13.226;2022-12-18T00:33:11;-3.90;95.60
64209;DHT22;50527;52.414;13.226;2022-12-18T00:35:36;-3.80;95.80
64209;DHT22;50527;52.414;13.226;2022-12-18T00:38:02;-3.70;95.30
64209;DHT22;50527;52.414;13.226;2022-12-18T00:40:27;-3.50;94.70
64209;DHT22;50527;52.414;13.226;2022-12-18T00:42:53;-3.50;94.20
64209;DHT22;50527;52.414;13.226;2022-12-18T00:45:23;-3.50;94.00
64209;DHT22;50527;52.414;13.226;2022-12-18T00:47:49;-3.70;93.70
64209;DHT22;50527;52.414;13.226;2022-12-18T00:50:14;-3.80;94.20
64209;DHT22;50527;52.414;13.226;2022-12-18T00:52:40;-3.80;94.40
64209;DHT22;50527;52.414;13.226;2022-12-18T00:55:07;-3.90;94.40
64209;DHT22;50527;52.414;13.226;2022-12-18T00:57:32;-4.00;94.90
64209;DHT22;50527;52.414;13.226;2022-12-18T00:59:57;-3.90;95.20
64209;DHT22;50527;52.414;13.226;2022-12-18T01:02:23;-3.90;95.00
64209;DHT22;50527;52.414;13.226;2022-12-18T01:04:48;-3.80;95.40
64209;DHT22;50527;52.414;13.226;2022-12-18T01:07:14;-3.70;95.50
64209;DHT22;50527;52.414;13.226;2022-12-18T01:09:39;-3.60;94.30
64209;DHT22;50527;52.414;13.226;2022-12-18T01:12:05;-3.60;94.20
64209;DHT22;50527;52.414;13.226;2022-12-18T01:14:31;-3.60;93.90
64209;DHT22;50527;52.414;13.226;2022-12-18T01:16:56;-3.70;93.70
64209;DHT22;50527;52.414;13.226;2022-12-18T01:19:22;-3.60;94.00
64209;DHT22;50527;52.414;13.226;2022-12-18T01:21:47;-3.60;94.00
64209;DHT22;50527;52.414;13.226;2022-12-18T01:24:13;-3.60;93.80
64209;DHT22;50527;52.414;13.226;2022-12-18T01:26:38;-3.80;94.00
64209;DHT22;50527;52.414;13.226;2022-12-18T01:29:04;-3.70;94.30
64209;DHT22;50527;52.414;13.226;2022-12-18T01:31:32;-3.80;94.40
64209;DHT22;50527;52.414;13.226;2022-12-18T01:34:00;-3.70;94.40
64209;DHT22;50527;52.414;13.226;2022-12-18T01:36:28;-3.80;94.50
64209;DHT22;50527;52.414;13.226;2022-12-18T01:38:55;-3.70;94.50
64209;DHT22;50527;52.414;13.226;2022-12-18T01:41:24;-3.60;94.10
64209;DHT22;50527;52.414;13.226;2022-12-18T01:43:56;-3.60;93.80
64209;DHT22;50527;52.414;13.226;2022-12-18T01:46:26;-3.70;93.80
64209;DHT22;50527;52.414;13.226;2022-12-18T01:48:57;-3.90;94.20
64209;DHT22;50527;52.414;13.226;2022-12-18T01:51:26;-3.90;94.60
64209;DHT22;50527;52.414;13.226;2022-12-18T01:53:52;-3.80;94.40
64209;DHT22;50527;52.414;13.226;2022-12-18T01:56:19;-3.80;94.30
64209;DHT22;50527;52.414;13.226;2022-12-18T01:59:02;-3.80;94.50
64209;DHT22;50527;52.414;13.226;2022-12-18T02:01:30;-3.90;94.50
64209;DHT22;50527;52.414;13.226;2022-12-18T02:03:56;-4.00;94.70
64209;DHT22;50527;52.414;13.226;2022-12-18T02:06:41;-4.00;94.80
64209;DHT22;50527;52.414;13.226;2022-12-18T02:09:13;-3.90;95.20
64209;DHT22;50527;52.414;13.226;2022-12-18T02:11:56;-3.80;94.80
64209;DHT22;50527;52.414;13.226;2022-12-18T02:14:41;-3.80;94.60
64209;DHT22;50527;52.414;13.226;2022-12-18T02:17:22;-3.80;94.60
64209;DHT22;50527;52.414;13.226;2022-12-18T02:20:09;-3.80;94.90
64209;DHT22;50527;52.414;13.226;2022-12-18T02:22:58;-3.80;94.20
64209;DHT22;50527;52.414;13.226;2022-12-18T02:28:12;-3.70;94.30
64209;DHT22;50527;52.414;13.226;2022-12-18T02:30:39;-3.70;94.20
64209;DHT22;50527;52.414;13.226;2022-12-18T02:33:07;-3.70;94.30
64209;DHT22;50527;52.414;13.226;2022-12-18T02:35:34;-3.60;94.00
64209;DHT22;50527;52.414;13.226;2022-12-18T02:38:03;-3.60;94.10
64209;DHT22;50527;52.414;13.226;2022-12-18T02:40:30;-3.60;93.70
64209;DHT22;50527;52.414;13.226;2022-12-18T02:42:55;-3.60;93.40
64209;DHT22;50527;52.414;13.226;2022-12-18T02:45:27;-3.70;93.20
64209;DHT22;50527;52.414;13.226;2022-12-18T02:47:52;-3.80;93.40
64209;DHT22;50527;52.414;13.226;2022-12-18T02:50:44;-3.70;93.60
64209;DHT22;50527;52.414;13.226;2022-12-18T02:53:20;-3.70;93.90
64209;DHT22;50527;52.414;13.226;2022-12-18T02:58:42;-3.60;93.10
64209;DHT22;50527;52.414;13.226;2022-12-18T03:01:31;-3.60;93.30
64209;DHT22;50527;52.414;13.226;2022-12-18T03:04:04;-3.60;93.70
64209;DHT22;50527;52.414;13.226;2022-12-18T03:06:35;-3.60;93.30
64209;DHT22;50527;52.414;13.226;2022-12-18T03:09:09;-3.60;93.50
64209;DHT22;50527;52.414;13.226;2022-12-18T03:11:39;-3.50;93.70
64209;DHT22;50527;52.414;13.226;2022-12-18T03:14:25;-3.60;93.20
64209;DHT22;50527;52.414;13.226;2022-12-18T03:16:56;-3.50;93.40
64209;DHT22;50527;52.414;13.226;2022-12-18T03:19:26;-3.50;92.90
64209;DHT22;50527;52.414;13.226;2022-12-18T03:21:55;-3.70;93.00
64209;DHT22;50527;52.414;13.226;2022-12-18T03:24:22;-3.70;93.30
64209;DHT22;50527;52.414;13.226;2022-12-18T03:26:54;-3.80;93.30
64209;DHT22;50527;52.414;13.226;2022-12-18T03:29:25;-3.80;93.90
64209;DHT22;50527;52.414;13.226;2022-12-18T03:31:55;-3.80;94.40
64209;DHT22;50527;52.414;13.226;2022-12-18T03:34:26;-3.80;94.80
64209;DHT22;50527;52.414;13.226;2022-12-18T03:36:54;-3.80;94.70
64209;DHT22;50527;52.414;13.226;2022-12-18T03:39:20;-3.80;94.60
64209;DHT22;50527;52.414;13.226;2022-12-18T03:41:51;-4.00;94.70
64209;DHT22;50527;52.414;13.226;2022-12-18T03:47:14;-4.20;95.40
64209;DHT22;50527;52.414;13.226;2022-12-18T03:52:36;-4.20;96.60
64209;DHT22;50527;52.414;13.226;2022-12-18T03:55:03;-4.20;96.40
64209;DHT22;50527;52.414;13.226;2022-12-18T03:57:31;-4.10;96.00
64209;DHT22;50527;52.414;13.226;2022-12-18T04:00:00;-4.20;95.40
64209;DHT22;50527;52.414;13.226;2022-12-18T04:02:28;-4.30;95.60
64209;DHT22;50527;52.414;13.226;2022-12-18T04:04:59;-4.20;96.50
64209;DHT22;50527;52.414;13.226;2022-12-18T04:07:25;-4.20;96.10
64209;DHT22;50527;52.414;13.226;2022-12-18T04:09:54;-4.10;96.20
64209;DHT22;50527;52.414;13.226;2022-12-18T04:12:20;-4.20;96.10
64209;DHT22;50527;52.414;13.226;2022-12-18T04:14:46;-4.00;96.20
64209;DHT22;50527;52.414;13.226;2022-12-18T04:17:11;-4.00;95.60
64209;DHT22;50527;52.414;13.226;2022-12-18T04:19:37;-4.00;95.70
64209;DHT22;50527;52.414;13.226;2022-12-18T04:22:02;-4.10;95.10
64209;DHT22;50527;52.414;13.226;2022-12-18T04:24:28;-4.00;95.90
64209;DHT22;50527;52.414;13.226;2022-12-18T04:26:53;-3.90;95.60
64209;DHT22;50527;52.414;13.226;2022-12-18T04:29:19;-3.80;95.10
64209;DHT22;50527;52.414;13.226;2022-12-18T04:31:44;-3.80;94.80
64209;DHT22;50527;52.414;13.226;2022-12-18T04:34:10;-3.90;94.50
64209;DHT22;50527;52.414;13.226;2022-12-18T04:36:35;-3.90;94.60
64209;DHT22;50527;52.414;13.226;2022-12-18T04:39:00;-4.10;94.70
64209;DHT22;50527;52.414;13.226;2022-12-18T04:43:54;-4.00;94.80
64209;DHT22;50527;52.414;13.226;2022-12-18T04:46:19;-3.90;95.00
64209;DHT22;50527;52.414;13.226;2022-12-18T04:48:46;-4.00;94.50
64209;DHT22;50527;52.414;13.226;2022-12-18T04:51:12;-4.00;94.40
64209;DHT22;50527;52.414;13.226;2022-12-18T04:53:37;-4.00;94.80
64209;DHT22;50527;52.414;13.226;2022-12-18T04:56:05;-4.00;94.70
64209;DHT22;50527;52.414;13.226;2022-12-18T04:58:30;-4.00;94.30
64209;DHT22;50527;52.414;13.226;2022-12-18T05:00:56;-4.00;94.60
64209;DHT22;50527;52.414;13.226;2022-12-18T05:03:21;-4.10;94.50
64209;DHT22;50527;52.414;13.226;2022-12-18T05:05:50;-4.10;95.20
64209;DHT22;50527;52.414;13.226;2022-12-18T05:08:17;-4.10;94.80
64209;DHT22;50527;52.414;13.226;2022-12-18T05:10:42;-4.20;94.90
64209;DHT22;50527;52.414;13.226;2022-12-18T05:13:08;-4.30;94.90
64209;DHT22;50527;52.414;13.226;2022-12-18T05:15:33;-4.40;94.90
64209;DHT22;50527;52.414;13.226;2022-12-18T05:18:00;-4.40;95.30
64209;DHT22;50527;52.414;13.226;2022-12-18T05:20:26;-4.40;95.60
64209;DHT22;50527;52.414;13.226;2022-12-18T05:22:52;-4.40;95.60
64209;DHT22;50527;52.414;13.226;2022-12-18T05:25:18;-4.40;96.10
64209;DHT22;50527;52.414;13.226;2022-12-18T05:27:44;-4.40;95.90
64209;DHT22;50527;52.414;13.226;2022-12-18T05:30:10;-4.40;95.50
64209;DHT22;50527;52.414;13.226;2022-12-18T05:32:36;-4.40;95.50
64209;DHT22;50527;52.414;13.226;2022-12-18T05:35:02;-4.40;95.10
64209;DHT22;50527;52.414;13.226;2022-12-18T05:37:27;-4.40;95.60
64209;DHT22;50527;52.414;13.226;2022-12-18T05:39:53;-4.30;95.70
64209;DHT22;50527;52.414;13.226;2022-12-18T05:42:18;-4.30;95.80
64209;DHT22;50527;52.414;13.226;2022-12-18T05:44:44;-4.20;95.40
64209;DHT22;50527;52.414;13.226;2022-12-18T05:47:09;-4.20;95.00
64209;DHT22;50527;52.414;13.226;2022-12-18T05:49:35;-4.20;95.10
64209;DHT22;50527;52.414;13.226;2022-12-18T05:52:01;-4.30;94.70
64209;DHT22;50527;52.414;13.226;2022-12-18T05:54:28;-4.30;95.10
64209;DHT22;50527;52.414;13.226;2022-12-18T05:56:53;-4.30;95.10
64209;DHT22;50527;52.414;13.226;2022-12-18T05:59:19;-4.20;95.10
64209;DHT22;50527;52.414;13.226;2022-12-18T06:01:45;-4.40;95.10
64209;DHT22;50527;52.414;13.226;2022-12-18T06:04:11;-4.20;95.50
64209;DHT22;50527;52.414;13.226;2022-12-18T06:06:36;-4.20;95.60
64209;DHT22;50527;52.414;13.226;2022-12-18T06:09:02;-4.10;95.60
64209;DHT22;50527;52.414;13.226;2022-12-18T06:11:33;-4.10;94.80
64209;DHT22;50527;52.414;13.226;2022-12-18T06:13:59;-4.40;94.90
64209;DHT22;50527;52.414;13.226;2022-12-18T06:16:26;-4.40;95.60
64209;DHT22;50527;52.414;13.226;2022-12-18T06:18:51;-4.40;95.60
64209;DHT22;50527;52.414;13.226;2022-12-18T06:21:17;-4.20;95.20
64209;DHT22;50527;52.414;13.226;2022-12-18T06:23:42;-4.10;95.20
64209;DHT22;50527;52.414;13.226;2022-12-18T06:26:13;-4.20;95.00
64209;DHT22;50527;52.414;13.226;2022-12-18T06:28:39;-4.20;94.60
64209;DHT22;50527;52.414;13.226;2022-12-18T06:31:06;-4.40;95.20
64209;DHT22;50527;52.414;13.226;2022-12-18T06:33:32;-4.60;95.60
64209;DHT22;50527;52.414;13.226;2022-12-18T06:36:11;-4.40;96.60
64209;DHT22;50527;52.414;13.226;2022-12-18T06:38:39;-4.50;96.20
64209;DHT22;50527;52.414;13.226;2022-12-18T06:41:10;-4.40;96.40
64209;DHT22;50527;52.414;13.226;2022-12-18T06:43:36;-4.30;96.30
64209;DHT22;50527;52.414;13.226;2022-12-18T06:46:02;-4.30;96.00
64209;DHT22;50527;52.414;13.226;2022-12-18T06:48:28;-4.20;95.90
64209;DHT22;50527;52.414;13.226;2022-12-18T06:50:53;-4.20;96.00
64209;DHT22;50527;52.414;13.226;2022-12-18T06:53:19;-4.10;95.80
64209;DHT22;50527;52.414;13.226;2022-12-18T06:55:44;-4.10;95.80
64209;DHT22;50527;52.414;13.226;2022-12-18T06:58:10;-4.00;96.00
64209;DHT22;50527;52.414;13.226;2022-12-18T07:00:36;-3.90;95.70
64209;DHT22;50527;52.414;13.226;2022-12-18T07:03:01;-3.90;95.20
64209;DHT22;50527;52.414;13.226;2022-12-18T07:05:27;-3.90;95.40
64209;DHT22;50527;52.414;13.226;2022-12-18T07:07:52;-3.90;95.50
64209;DHT22;50527;52.414;13.226;2022-12-18T07:10:18;-4.00;95.90
64209;DHT22;50527;52.414;13.226;2022-12-18T07:12:43;-3.90;96.10
64209;DHT22;50527;52.414;13.226;2022-12-18T07:15:09;-3.90;96.20
64209;DHT22;50527;52.414;13.226;2022-12-18T07:17:35;-3.80;96.40
64209;DHT22;50527;52.414;13.226;2022-12-18T07:20:00;-3.80;96.30
64209;DHT22;50527;52.414;13.226;2022-12-18T07:22:26;-3.90;96.40
64209;DHT22;50527;52.414;13.226;2022-12-18T07:24:52;-3.90;96.70
64209;DHT22;50527;52.414;13.226;2022-12-18T07:27:17;-3.90;96.70
64209;DHT22;50527;52.414;13.226;2022-12-18T07:29:43;-3.90;96.70
64209;DHT22;50527;52.414;13.226;2022-12-18T07:32:08;-3.90;96.30
64209;DHT22;50527;52.414;13.226;2022-12-18T07:34:34;-3.90;96.30
64209;DHT22;50527;52.414;13.226;2022-12-18T07:37:00;-3.90;96.70
64209;DHT22;50527;52.414;13.226;2022-12-18T07:39:25;-4.00;96.40
64209;DHT22;50527;52.414;13.226;2022-12-18T07:41:51;-3.80;96.40
64209;DHT22;50527;52.414;13.226;2022-12-18T07:44:35;-3.90;95.60
64209;DHT22;50527;52.414;13.226;2022-12-18T07:47:01;-4.00;96.30
64209;DHT22;50527;52.414;13.226;2022-12-18T07:49:27;-4.00;96.40
64209;DHT22;50527;52.414;13.226;2022-12-18T07:51:55;-4.00;96.20
64209;DHT22;50527;52.414;13.226;2022-12-18T07:54:21;-4.10;96.50
64209;DHT22;50527;52.414;13.226;2022-12-18T07:56:47;-4.10;96.90
64209;DHT22;50527;52.414;13.226;2022-12-18T07:59:12;-4.20;97.20
64209;DHT22;50527;52.414;13.226;2022-12-18T08:01:38;-4.10;97.70
64209;DHT22;50527;52.414;13.226;2022-12-18T08:04:03;-3.90;97.90
64209;DHT22;50527;52.414;13.226;2022-12-18T08:06:29;-4.00;97.40
64209;DHT22;50527;52.414;13.226;2022-12-18T08:08:55;-4.00;97.40
64209;DHT22;50527;52.414;13.226;2022-12-18T08:11:22;-4.10;97.50
64209;DHT22;50527;52.414;13.226;2022-12-18T08:13:48;-4.00;97.70
64209;DHT22;50527;52.414;13.226;2022-12-18T08:16:13;-4.00;97.70
64209;DHT22;50527;52.414;13.226;2022-12-18T08:18:39;-3.90;98.30
64209;DHT22;50527;52.414;13.226;2022-12-18T08:21:09;-3.80;97.80
64209;DHT22;50527;52.414;13.226;2022-12-18T08:23:35;-3.80;97.20
64209;DHT22;50527;52.414;13.226;2022-12-18T08:26:01;-3.90;97.30
64209;DHT22;50527;52.414;13.226;2022-12-18T08:28:26;-3.80;97.30
64209;DHT22;50527;52.414;13.226;2022-12-18T08:30:52;-3.90;97.00
64209;DHT22;50527;52.414;13.226;2022-12-18T08:33:18;-3.90;97.30
64209;DHT22;50527;52.414;13.226;2022-12-18T08:35:43;-3.80;97.20
64209;DHT22;50527;52.414;13.226;2022-12-18T08:38:09;-3.80;97.10
64209;DHT22;50527;52.414;13.226;2022-12-18T08:40:34;-3.60;97.30
64209;DHT22;50527;52.414;13.226;2022-12-18T08:42:59;-3.50;96.50
64209;DHT22;50527;52.414;13.226;2022-12-18T08:45:44;-3.50;96.40
64209;DHT22;50527;52.414;13.226;2022-12-18T08:48:09;-3.30;96.60
64209;DHT22;50527;52.414;13.226;2022-12-18T08:50:34;-3.20;95.80
64209;DHT22;50527;52.414;13.226;2022-12-18T08:53:00;-3.20;94.90
64209;DHT22;50527;52.414;13.226;2022-12-18T08:55:26;-3.20;94.20
64209;DHT22;50527;52.414;13.226;2022-12-18T08:57:51;-3.10;94.30
64209;DHT22;50527;52.414;13.226;2022-12-18T09:00:17;-3.20;93.70
64209;DHT22;50527;52.414;13.226;2022-12-18T09:02:45;-3.30;94.00
64209;DHT22;50527;52.414;13.226;2022-12-18T09:05:11;-3.50;94.40
64209;DHT22;50527;52.414;13.226;2022-12-18T09:07:37;-3.50;94.90
64209;DHT22;50527;52.414;13.226;2022-12-18T09:10:03;-3.60;95.60
64209;DHT22;50527;52.414;13.226;2022-12-18T09:12:31;-3.50;95.60
64209;DHT22;50527;52.414;13.226;2022-12-18T09:14:57;-3.50;95.70
64209;DHT22;50527;52.414;13.226;2022-12-18T09:17:22;-3.60;95.70
64209;DHT22;50527;52.414;13.226;2022-12-18T09:19:48;-3.40;95.60
64209;DHT22;50527;52.414;13.226;2022-12-18T09:22:14;-3.40;95.20
64209;DHT22;50527;52.414;13.226;2022-12-18T09:24:39;-3.40;95.40
64209;DHT22;50527;52.414;13.226;2022-12-18T09:27:05;-3.40;95.10
64209;DHT22;50527;52.414;13.226;2022-12-18T09:29:31;-3.50;95.50
64209;DHT22;50527;52.414;13.226;2022-12-18T09:31:57;-3.70;95.80
64209;DHT22;50527;52.414;13.226;2022-12-18T09:34:22;-3.60;96.50
64209;DHT22;50527;52.414;13.226;2022-12-18T09:36:48;-3.60;96.70
64209;DHT22;50527;52.414;13.226;2022-12-18T09:39:14;-3.70;96.90
64209;DHT22;50527;52.414;13.226;2022-12-18T09:41:46;-3.50;97.90
64209;DHT22;50527;52.414;13.226;2022-12-18T09:47:24;-3.30;96.90
64209;DHT22;50527;52.414;13.226;2022-12-18T09:49:56;-3.40;96.50
64209;DHT22;50527;52.414;13.226;2022-12-18T09:52:37;-3.40;96.60
64209;DHT22;50527;52.414;13.226;2022-12-18T09:55:23;-3.40;96.50
64209;DHT22;50527;52.414;13.226;2022-12-18T09:57:55;-3.40;96.10
64209;DHT22;50527;52.414;13.226;2022-12-18T10:00:23;-3.40;96.30
64209;DHT22;50527;52.414;13.226;2022-12-18T10:02:55;-3.20;96.60
64209;DHT22;50527;52.414;13.226;2022-12-18T10:05:55;-3.30;95.90
64209;DHT22;50527;52.414;13.226;2022-12-18T10:08:54;-3.30;96.70
64209;DHT22;50527;52.414;13.226;2022-12-18T10:14:23;-3.20;95.40
64209;DHT22;50527;52.414;13.226;2022-12-18T10:17:11;-3.20;95.70
64209;DHT22;50527;52.414;13.226;2022-12-18T10:20:00;-3.20;96.20
64209;DHT22;50527;52.414;13.226;2022-12-18T10:25:34;-3.30;97.10
64209;DHT22;50527;52.414;13.226;2022-12-18T10:28:10;-3.10;97.00
64209;DHT22;50527;52.414;13.226;2022-12-18T10:30:39;-3.00;96.60
64209;DHT22;50527;52.414;13.226;2022-12-18T10:33:19;-3.00;96.20
64209;DHT22;50527;52.414;13.226;2022-12-18T10:35:47;-3.10;95.70
64209;DHT22;50527;52.414;13.226;2022-12-18T10:40:56;-2.90;95.80
64209;DHT22;50527;52.414;13.226;2022-12-18T10:43:37;-3.00;95.80
64209;DHT22;50527;52.414;13.226;2022-12-18T10:48:48;-3.00;97.00
64209;DHT22;50527;52.414;13.226;2022-12-18T10:51:30;-3.00;97.00
64209;DHT22;50527;52.414;13.226;2022-12-18T10:54:02;-3.00;97.30
64209;DHT22;50527;52.414;13.226;2022-12-18T10:56:29;-3.00;97.10
64209;DHT22;50527;52.414;13.226;2022-12-18T10:58:58;-3.10;97.20
64209;DHT22;50527;52.414;13.226;2022-12-18T11:01:24;-3.00;97.80
64209;DHT22;50527;52.414;13.226;2022-12-18T11:06:17;-2.80;98.20
64209;DHT22;50527;52.414;13.226;2022-12-18T11:08:58;-2.80;97.60
64209;DHT22;50527;52.414;13.226;2022-12-18T11:11:24;-2.80;98.00
64209;DHT22;50527;52.414;13.226;2022-12-18T11:14:13;-2.80;97.70
64209;DHT22;50527;52.414;13.226;2022-12-18T11:16:48;-2.80;98.10
64209;DHT22;50527;52.414;13.226;2022-12-18T11:19:36;-2.90;98.20
64209;DHT22;50527;52.414;13.226;2022-12-18T11:22:20;-2.90;98.50
64209;DHT22;50527;52.414;13.226;2022-12-18T11:24:57;-2.90;98.70
64209;DHT22;50527;52.414;13.226;2022-12-18T11:27:23;-2.70;98.90
64209;DHT22;50527;52.414;13.226;2022-12-18T11:29:50;-2.80;99.20
64209;DHT22;50527;52.414;13.226;2022-12-18T11:32:38;-2.70;99.40
64209;DHT22;50527;52.414;13.226;2022-12-18T11:37:33;-2.70;99.20
64209;DHT22;50527;52.414;13.226;2022-12-18T11:40:06;-2.70;99.30
64209;DHT22;50527;52.414;13.226;2022-12-18T11:42:44;-2.70;99.70
64209;DHT22;50527;52.414;13.226;2022-12-18T11:47:56;-2.50;99.50
64209;DHT22;50527;52.414;13.226;2022-12-18T11:50:44;-2.50;99.70
64209;DHT22;50527;52.414;13.226;2022-12-18T11:53:12;-2.40;99.50
64209;DHT22;50527;52.414;13.226;2022-12-18T11:58:38;-2.50;99.30
64209;DHT22;50527;52.414;13.226;2022-12-18T12:01:30;-2.40;99.50
64209;DHT22;50527;52.414;13.226;2022-12-18T12:07:23;-2.20;99.10
64209;DHT22;50527;52.414;13.226;2022-12-18T12:10:14;-2.10;98.50
64209;DHT22;50527;52.414;13.226;2022-12-18T12:17:45;-2.10;97.30
64209;DHT22;50527;52.414;13.226;2022-12-18T12:20:43;-2.20;97.50
64209;DHT22;50527;52.414;13.226;2022-12-18T12:26:06;-2.10;97.60
64209;DHT22;50527;52.414;13.226;2022-12-18T12:28:57;-2.20;97.80
64209;DHT22;50527;52.414;13.226;2022-12-18T12:39:30;-1.90;97.80
64209;DHT22;50527;52.414;13.226;2022-12-18T12:41:56;-2.00;97.30
64209;DHT22;50527;52.414;13.226;2022-12-18T12:44:53;-2.10;97.40
64209;DHT22;50527;52.414;13.226;2022-12-18T12:47:33;-2.00;97.70
64209;DHT22;50527;52.414;13.226;2022-12-18T12:50:04;-2.00;97.80
64209;DHT22;50527;52.414;13.226;2022-12-18T12:55:04;-1.80;97.70
64209;DHT22;50527;52.414;13.226;2022-12-18T12:57:40;-1.90;97.00
64209;DHT22;50527;52.414;13.226;2022-12-18T13:00:13;-1.90;97.10
64209;DHT22;50527;52.414;13.226;2022-12-18T13:05:38;-2.20;98.00
64209;DHT22;50527;52.414;13.226;2022-12-18T13:08:09;-2.10;98.50
64209;DHT22;50527;52.414;13.226;2022-12-18T13:10:39;-2.10;98.10
64209;DHT22;50527;52.414;13.226;2022-12-18T13:13:10;-1.90;97.60
64209;DHT22;50527;52.414;13.226;2022-12-18T13:15:42;-2.10;97.30
64209;DHT22;50527;52.414;13.226;2022-12-18T13:20:46;-2.30;97.90
64209;DHT22;50527;52.414;13.226;2022-12-18T13:25:51;-2.40;97.70
64209;DHT22;50527;52.414;13.226;2022-12-18T13:31:02;-2.40;98.30
64209;DHT22;50527;52.414;13.226;2022-12-18T13:33:41;-2.40;98.70
64209;DHT22;50527;52.414;13.226;2022-12-18T13:41:42;-2.30;98.20
64209;DHT22;50527;52.414;13.226;2022-12-18T13:44:28;-2.30;97.90
64209;DHT22;50527;52.414;13.226;2022-12-18T13:46:55;-2.50;98.10
64209;DHT22;50527;52.414;13.226;2022-12-18T13:49:24;-2.50;98.70
64209;DHT22;50527;52.414;13.226;2022-12-18T13:51:55;-2.50;99.10
64209;DHT22;50527;52.414;13.226;2022-12-18T13:54:34;-2.40;99.20
64209;DHT22;50527;52.414;13.226;2022-12-18T13:57:02;-2.30;99.40
64209;DHT22;50527;52.414;13.226;2022-12-18T13:59:35;-2.30;98.50
64209;DHT22;50527;52.414;13.226;2022-12-18T14:02:14;-2.40;98.40
64209;DHT22;50527;52.414;13.226;2022-12-18T14:04:41;-2.40;99.10
64209;DHT22;50527;52.414;13.226;2022-12-18T14:07:24;-2.30;98.60
64209;DHT22;50527;52.414;13.226;2022-12-18T14:09:52;-2.20;98.20
64209;DHT22;50527;52.414;13.226;2022-12-18T14:12:22;-2.20;97.30
64209;DHT22;50527;52.414;13.226;2022-12-18T14:15:31;-2.30;97.60
64209;DHT22;50527;52.414;13.226;2022-12-18T14:18:19;-2.40;97.20
64209;DHT22;50527;52.414;13.226;2022-12-18T14:20:47;-2.40;97.90
64209;DHT22;50527;52.414;13.226;2022-12-18T14:23:38;-2.40;98.30
64209;DHT22;50527;52.414;13.226;2022-12-18T14:26:21;-2.50;98.60
64209;DHT22;50527;52.414;13.226;2022-12-18T14:28:47;-2.40;98.40
64209;DHT22;50527;52.414;13.226;2022-12-18T14:31:20;-2.60;98.30
64209;DHT22;50527;52.414;13.226;2022-12-18T14:33:45;-2.50;99.10
64209;DHT22;50527;52.414;13.226;2022-12-18T14:36:25;-2.60;99.50
64209;DHT22;50527;52.414;13.226;2022-12-18T14:38:53;-2.60;99.90
64209;DHT22;50527;52.414;13.226;2022-12-18T14:41:20;-2.50;99.50
64209;DHT22;50527;52.414;13.226;2022-12-18T14:43:48;-2.50;98.90
64209;DHT22;50527;52.414;13.226;2022-12-18T14:48:59;-2.50;98.90
64209;DHT22;50527;52.414;13.226;2022-12-18T14:51:27;-2.40;99.30
64209;DHT22;50527;52.414;13.226;2022-12-18T14:53:55;-2.40;98.90
64209;DHT22;50527;52.414;13.226;2022-12-18T14:56:23;-2.40;98.00
64209;DHT22;50527;52.414;13.226;2022-12-18T14:59:03;-2.50;98.00
64209;DHT22;50527;52.414;13.226;2022-12-18T15:01:29;-2.60;98.50
64209;DHT22;50527;52.414;13.226;2022-12-18T15:03:56;-2.60;98.70
64209;DHT22;50527;52.414;13.226;2022-12-18T15:06:32;-2.50;99.00
64209;DHT22;50527;52.414;13.226;2022-12-18T15:09:00;-2.50;98.80
64209;DHT22;50527;52.414;13.226;2022-12-18T15:11:35;-2.60;98.80
64209;DHT22;50527;52.414;13.226;2022-12-18T15:14:32;-2.50;98.80
64209;DHT22;50527;52.414;13.226;2022-12-18T15:16:59;-2.50;98.80
64209;DHT22;50527;52.414;13.226;2022-12-18T15:19:34;-2.60;98.80
64209;DHT22;50527;52.414;13.226;2022-12-18T15:22:01;-2.60;98.90
64209;DHT22;50527;52.414;13.226;2022-12-18T15:24:31;-2.60;99.20
64209;DHT22;50527;52.414;13.226;2022-12-18T15:26:57;-2.70;99.10
64209;DHT22;50527;52.414;13.226;2022-12-18T15:29:23;-2.70;99.30
64209;DHT22;50527;52.414;13.226;2022-12-18T15:32:01;-2.60;99.50
64209;DHT22;50527;52.414;13.226;2022-12-18T15:34:27;-2.60;98.70
64209;DHT22;50527;52.414;13.226;2022-12-18T15:36:53;-2.70;98.40
64209;DHT22;50527;52.414;13.226;2022-12-18T15:39:18;-2.70;98.50
64209;DHT22;50527;52.414;13.226;2022-12-18T15:41:44;-2.80;98.90
64209;DHT22;50527;52.414;13.226;2022-12-18T15:44:30;-2.90;98.50
64209;DHT22;50527;52.414;13.226;2022-12-18T15:46:56;-2.90;98.90
64209;DHT22;50527;52.414;13.226;2022-12-18T15:49:22;-2.90;99.60
64209;DHT22;50527;52.414;13.226;2022-12-18T15:51:54;-2.90;99.80
64209;DHT22;50527;52.414;13.226;2022-12-18T15:54:20;-2.80;99.70
64209;DHT22;50527;52.414;13.226;2022-12-18T15:57:09;-2.80;99.00
64209;DHT22;50527;52.414;13.226;2022-12-18T15:59:52;-2.70;98.80
64209;DHT22;50527;52.414;13.226;2022-12-18T16:02:23;-2.60;98.00
64209;DHT22;50527;52.414;13.226;2022-12-18T16:04:50;-2.60;97.80
64209;DHT22;50527;52.414;13.226;2022-12-18T16:07:17;-2.60;97.80
64209;DHT22;50527;52.414;13.226;2022-12-18T16:09:43;-2.60;97.00
64209;DHT22;50527;52.414;13.226;2022-12-18T16:12:16;-2.70;97.30
64209;DHT22;50527;52.414;13.226;2022-12-18T16:14:42;-2.60;97.20
64209;DHT22;50527;52.414;13.226;2022-12-18T16:17:10;-2.70;96.60
64209;DHT22;50527;52.414;13.226;2022-12-18T16:19:36;-2.90;97.10
64209;DHT22;50527;52.414;13.226;2022-12-18T16:22:03;-2.90;97.40
64209;DHT22;50527;52.414;13.226;2022-12-18T16:24:31;-2.90;97.60
64209;DHT22;50527;52.414;13.226;2022-12-18T16:26:59;-2.80;98.10
64209;DHT22;50527;52.414;13.226;2022-12-18T16:29:26;-2.70;98.10
64209;DHT22;50527;52.414;13.226;2022-12-18T16:32:01;-2.60;97.40
64209;DHT22;50527;52.414;13.226;2022-12-18T16:34:29;-2.50;96.70
64209;DHT22;50527;52.414;13.226;2022-12-18T16:37:00;-2.70;96.60
64209;DHT22;50527;52.414;13.226;2022-12-18T16:39:26;-2.70;97.10
64209;DHT22;50527;52.414;13.226;2022-12-18T16:41:52;-2.60;97.10
64209;DHT22;50527;52.414;13.226;2022-12-18T16:44:18;-2.70;97.20
64209;DHT22;50527;52.414;13.226;2022-12-18T16:46:44;-2.80;97.30
64209;DHT22;50527;52.414;13.226;2022-12-18T16:49:14;-2.80;97.60
64209;DHT22;50527;52.414;13.226;2022-12-18T16:51:40;-2.80;97.90